createdAt,value
2023-03-11T00:00:35.850Z,18.50
2023-03-11T00:03:04.212Z,16.63
2023-03-11T00:05:33.736Z,16.67
2023-03-11T00:08:01.395Z,16.80
2023-03-11T00:10:31.092Z,16.75
2023-03-11T00:12:59.271Z,16.17
2023-03-11T00:15:26.997Z,15.93
2023-03-11T00:17:53.939Z,17.70
2023-03-11T00:20:33.288Z,14.60
2023-03-11T00:23:00.820Z,18.00
2023-03-11T00:25:30.384Z,17.55
2023-03-11T00:27:57.580Z,16.17
2023-03-11T00:30:25.587Z,17.00
2023-03-11T00:32:55.224Z,15.98
2023-03-11T00:35:25.022Z,16.80
2023-03-11T00:37:55.144Z,14.73
2023-03-11T00:40:22.920Z,13.52
2023-03-11T00:42:49.727Z,15.75
2023-03-11T00:45:17.265Z,16.20
2023-03-11T00:47:44.307Z,14.95
2023-03-11T00:50:17.845Z,14.82
2023-03-11T00:52:46.131Z,16.10
2023-03-11T00:55:15.608Z,13.32
2023-03-11T00:57:43.563Z,13.43
2023-03-11T01:00:16.711Z,14.10
2023-03-11T01:02:43.817Z,10.48
2023-03-11T01:05:11.294Z,13.90
2023-03-11T01:07:38.341Z,12.85
2023-03-11T01:10:08.118Z,13.52
2023-03-11T01:12:35.068Z,11.02
2023-03-11T01:15:03.099Z,11.55
2023-03-11T01:17:30.005Z,9.57
2023-03-11T01:19:56.899Z,9.77
2023-03-11T01:22:23.772Z,10.15
2023-03-11T01:24:50.734Z,9.45
2023-03-11T01:27:17.579Z,10.98
2023-03-11T01:29:44.545Z,11.18
2023-03-11T01:32:11.586Z,9.98
2023-03-11T01:34:38.904Z,9.05
2023-03-11T01:37:05.968Z,10.70
2023-03-11T01:39:32.846Z,10.95
2023-03-11T01:41:59.875Z,12.68
2023-03-11T01:44:27.054Z,12.20
2023-03-11T01:47:21.336Z,12.15
2023-03-11T01:49:49.100Z,13.43
2023-03-11T01:52:16.407Z,13.13
2023-03-11T01:54:51.801Z,13.85
2023-03-11T01:57:19.802Z,12.55
2023-03-11T01:59:51.201Z,12.35
2023-03-11T02:02:40.267Z,12.25
2023-03-11T02:05:07.811Z,9.27
2023-03-11T02:07:35.139Z,10.15
2023-03-11T02:10:03.048Z,10.07
2023-03-11T02:12:31.562Z,10.40
2023-03-11T02:14:58.842Z,10.90
2023-03-11T02:17:25.784Z,12.60
2023-03-11T02:20:17.048Z,12.38
2023-03-11T02:22:44.193Z,11.43
2023-03-11T02:25:25.513Z,12.18
2023-03-11T02:27:53.786Z,13.73
2023-03-11T02:30:26.697Z,10.73
2023-03-11T02:32:55.019Z,10.63
2023-03-11T02:35:22.520Z,7.70
2023-03-11T02:37:52.644Z,8.35
2023-03-11T02:40:42.004Z,7.70
2023-03-11T02:43:14.948Z,9.00
2023-03-11T02:45:44.738Z,7.85
2023-03-11T02:48:13.048Z,9.15
2023-03-11T02:50:40.566Z,7.97
2023-03-11T02:53:08.634Z,8.13
2023-03-11T02:55:35.893Z,8.07
2023-03-11T02:58:02.741Z,7.55
2023-03-11T03:00:29.944Z,8.00
2023-03-11T03:03:02.401Z,7.68
2023-03-11T03:05:29.603Z,7.25
2023-03-11T03:07:58.355Z,7.07
2023-03-11T03:10:25.408Z,5.32
2023-03-11T03:12:52.335Z,6.10
2023-03-11T03:15:19.195Z,6.85
2023-03-11T03:17:46.735Z,6.57
2023-03-11T03:20:14.780Z,7.05
2023-03-11T03:22:47.316Z,8.45
2023-03-11T03:25:17.171Z,8.80
2023-03-11T03:27:44.076Z,6.30
2023-03-11T03:30:11.662Z,5.53
2023-03-11T03:32:39.811Z,6.70
2023-03-11T03:35:10.572Z,8.07
2023-03-11T03:37:55.334Z,6.63
2023-03-11T03:40:22.991Z,6.95
2023-03-11T03:42:51.194Z,6.20
2023-03-11T03:45:19.251Z,6.55
2023-03-11T03:47:46.959Z,7.05
2023-03-11T03:50:13.963Z,6.57
2023-03-11T03:52:44.453Z,6.70
2023-03-11T03:55:11.661Z,6.90
2023-03-11T03:57:39.235Z,4.25
2023-03-11T04:00:11.902Z,5.10
2023-03-11T04:02:42.028Z,6.68
2023-03-11T04:05:18.259Z,6.30
2023-03-11T04:07:46.020Z,6.85
2023-03-11T04:10:14.128Z,5.07
2023-03-11T04:12:42.088Z,6.05
2023-03-11T04:15:09.637Z,5.22
2023-03-11T04:17:37.992Z,6.05
2023-03-11T04:20:08.191Z,6.28
2023-03-11T04:22:35.433Z,6.25
2023-03-11T04:25:02.823Z,5.03
2023-03-11T04:27:32.016Z,4.72
2023-03-11T04:30:01.101Z,4.45
2023-03-11T04:32:28.707Z,5.50
2023-03-11T04:34:55.823Z,5.63
2023-03-11T04:37:23.434Z,5.57
2023-03-11T04:39:51.111Z,5.88
2023-03-11T04:42:19.181Z,5.43
2023-03-11T04:44:47.095Z,3.00
2023-03-11T04:47:14.204Z,5.38
2023-03-11T04:49:41.473Z,5.72
2023-03-11T04:52:08.414Z,5.47
2023-03-11T04:54:35.994Z,6.07
2023-03-11T04:57:03.242Z,5.05
2023-03-11T04:59:30.114Z,6.72
2023-03-11T05:01:57.312Z,6.47
2023-03-11T05:04:24.316Z,6.10
2023-03-11T05:06:51.372Z,6.30
2023-03-11T05:09:19.761Z,5.82
2023-03-11T05:11:46.836Z,6.22
2023-03-11T05:14:15.773Z,5.80
2023-03-11T05:16:42.801Z,5.50
2023-03-11T05:19:30.438Z,5.78
2023-03-11T05:21:58.824Z,6.38
2023-03-11T05:24:26.828Z,5.85
2023-03-11T05:26:54.280Z,5.95
2023-03-11T05:29:21.769Z,6.63
2023-03-11T05:31:48.871Z,6.03
2023-03-11T05:34:16.388Z,6.28
2023-03-11T05:36:43.602Z,5.80
2023-03-11T05:39:10.829Z,6.63
2023-03-11T05:41:37.974Z,6.85
2023-03-11T05:44:04.955Z,5.47
2023-03-11T05:46:32.592Z,6.30
2023-03-11T05:49:00.749Z,6.25
2023-03-11T05:51:27.960Z,8.43
2023-03-11T05:53:55.528Z,6.93
2023-03-11T05:56:30.759Z,7.32
2023-03-11T05:58:58.527Z,7.78
2023-03-11T06:01:29.337Z,7.13
2023-03-11T06:03:56.341Z,9.38
2023-03-11T06:06:23.945Z,6.70
2023-03-11T06:08:51.109Z,5.82
2023-03-11T06:11:20.168Z,3.47
2023-03-11T06:13:47.380Z,5.10
2023-03-11T06:16:14.594Z,6.43
2023-03-11T06:18:41.612Z,7.25
2023-03-11T06:21:09.611Z,6.32
2023-03-11T06:23:36.661Z,5.40
2023-03-11T06:26:05.373Z,6.32
2023-03-11T06:28:37.547Z,4.68
2023-03-11T06:31:09.237Z,4.28
2023-03-11T06:33:36.522Z,3.45
2023-03-11T06:36:04.688Z,5.15
2023-03-11T06:38:32.361Z,5.00
2023-03-11T06:41:03.888Z,4.82
2023-03-11T06:43:32.464Z,5.20
2023-03-11T06:46:00.678Z,4.35
2023-03-11T06:48:28.496Z,4.70
2023-03-11T06:51:00.208Z,3.55
2023-03-11T06:53:29.855Z,3.35
2023-03-11T06:56:08.493Z,3.95
2023-03-11T06:58:42.781Z,4.07
2023-03-11T07:01:18.406Z,5.22
2023-03-11T07:03:49.299Z,5.10
2023-03-11T07:06:22.722Z,4.47
2023-03-11T07:08:53.454Z,4.45
2023-03-11T07:11:23.550Z,2.95
2023-03-11T07:13:53.984Z,3.55
2023-03-11T07:16:23.846Z,5.15
2023-03-11T07:18:56.912Z,4.55
2023-03-11T07:21:23.864Z,4.13
2023-03-11T07:23:57.505Z,4.97
2023-03-11T07:26:25.306Z,6.03
2023-03-11T07:28:52.888Z,5.53
2023-03-11T07:31:23.557Z,3.30
2023-03-11T07:33:50.978Z,3.45
2023-03-11T07:36:20.093Z,4.22
2023-03-11T07:38:47.084Z,4.65
2023-03-11T07:41:15.020Z,6.63
2023-03-11T07:43:42.904Z,6.18
2023-03-11T07:46:16.726Z,4.53
2023-03-11T07:48:43.721Z,4.05
2023-03-11T07:51:13.035Z,3.30
2023-03-11T07:53:43.267Z,4.00
2023-03-11T07:56:12.668Z,3.25
2023-03-11T07:59:01.703Z,3.25
2023-03-11T08:01:36.897Z,4.25
2023-03-11T08:04:05.951Z,3.53
2023-03-11T08:09:37.843Z,5.13
2023-03-11T08:12:04.977Z,5.05
2023-03-11T08:14:32.013Z,5.05
2023-03-11T08:16:58.947Z,4.80
2023-03-11T08:19:25.774Z,4.95
2023-03-11T08:21:52.666Z,3.88
2023-03-11T08:24:19.589Z,4.38
2023-03-11T08:26:46.439Z,3.63
2023-03-11T08:29:13.294Z,4.55
2023-03-11T08:31:40.173Z,4.28
2023-03-11T08:34:10.331Z,4.60
2023-03-11T08:36:37.378Z,4.70
2023-03-11T08:39:04.438Z,4.40
2023-03-11T08:41:31.397Z,3.50
2023-03-11T08:43:58.394Z,4.57
2023-03-11T08:46:34.119Z,3.08
2023-03-11T08:49:01.792Z,3.53
2023-03-11T08:51:29.499Z,3.13
2023-03-11T08:53:56.513Z,3.83
2023-03-11T08:56:23.606Z,3.85
2023-03-11T08:58:50.998Z,4.35
2023-03-11T09:01:18.517Z,4.70
2023-03-11T09:03:45.602Z,7.50
2023-03-11T09:06:15.602Z,18.45
2023-03-11T09:08:43.914Z,17.40
2023-03-11T09:11:13.682Z,8.25
2023-03-11T09:13:42.022Z,11.68
2023-03-11T09:16:13.310Z,4.78
2023-03-11T09:18:40.303Z,1.92
2023-03-11T09:21:07.281Z,3.40
2023-03-11T09:23:34.260Z,3.38
2023-03-11T09:26:01.080Z,2.53
2023-03-11T09:28:28.200Z,3.10
2023-03-11T09:30:55.131Z,3.60
2023-03-11T09:33:21.981Z,2.92
2023-03-11T09:35:49.036Z,3.40
2023-03-11T09:38:15.913Z,2.67
2023-03-11T09:40:58.655Z,3.60
2023-03-11T09:44:05.371Z,4.47
2023-03-11T09:47:04.564Z,4.22
2023-03-11T09:49:54.264Z,3.40
2023-03-11T09:52:32.034Z,3.33
2023-03-11T09:55:00.257Z,3.13
2023-03-11T09:57:30.998Z,2.53
2023-03-11T09:59:58.845Z,3.40
2023-03-11T10:02:27.865Z,2.85
2023-03-11T10:04:59.391Z,3.67
2023-03-11T10:07:31.154Z,2.80
2023-03-11T10:12:53.567Z,2.83
2023-03-11T10:15:49.283Z,2.33
2023-03-11T10:18:55.269Z,1.73
2023-03-11T10:21:53.828Z,1.30
2023-03-11T10:25:01.736Z,2.42
2023-03-11T10:27:37.782Z,2.45
2023-03-11T10:30:26.888Z,2.85
2023-03-11T10:33:01.557Z,2.53
2023-03-11T10:35:46.610Z,2.30
2023-03-11T10:38:18.727Z,2.50
2023-03-11T10:40:48.878Z,2.47
2023-03-11T10:43:42.139Z,1.83
2023-03-11T10:46:25.113Z,2.58
2023-03-11T10:48:54.034Z,1.75
2023-03-11T10:51:45.254Z,1.92
2023-03-11T10:54:35.664Z,2.08
2023-03-11T10:57:05.960Z,2.78
2023-03-11T10:59:46.427Z,2.20
2023-03-11T11:05:35.771Z,1.92
2023-03-11T11:08:09.610Z,2.00
2023-03-11T11:10:39.828Z,1.42
2023-03-11T11:13:20.415Z,2.20
2023-03-11T11:16:02.488Z,1.92
2023-03-11T11:18:49.430Z,3.17
2023-03-11T11:21:28.154Z,4.80
2023-03-11T11:24:08.827Z,2.83
2023-03-11T11:26:35.814Z,4.07
2023-03-11T11:29:15.605Z,4.50
2023-03-11T11:31:48.101Z,3.60
2023-03-11T11:34:29.826Z,3.22
2023-03-11T11:37:01.887Z,2.30
2023-03-11T11:39:32.703Z,3.22
2023-03-11T11:42:04.923Z,2.03
2023-03-11T11:44:36.216Z,2.88
2023-03-11T11:47:14.857Z,2.50
2023-03-11T11:49:50.581Z,2.30
2023-03-11T11:52:25.722Z,2.53
2023-03-11T11:54:59.541Z,3.40
2023-03-11T11:57:27.636Z,2.70
2023-03-11T11:59:58.057Z,2.00
2023-03-11T12:02:51.413Z,1.70
2023-03-11T12:05:30.325Z,1.67
2023-03-11T12:08:23.778Z,1.88
2023-03-11T12:11:15.329Z,2.00
2023-03-11T12:14:00.655Z,1.98
2023-03-11T12:16:52.143Z,1.52
2023-03-11T12:19:45.182Z,1.88
2023-03-11T12:22:41.471Z,1.88
2023-03-11T12:25:39.802Z,3.47
2023-03-11T12:28:26.304Z,2.20
2023-03-11T12:31:02.118Z,2.20
2023-03-11T12:33:34.715Z,2.00
2023-03-11T12:38:40.061Z,2.00
2023-03-11T12:41:36.922Z,2.08
2023-03-11T12:44:05.709Z,2.70
2023-03-11T12:47:03.897Z,4.93
2023-03-11T12:49:36.660Z,18.92
2023-03-11T12:52:17.390Z,26.33
2023-03-11T12:55:19.202Z,14.13
2023-03-11T12:57:54.079Z,5.10
2023-03-11T13:00:44.425Z,3.78
2023-03-11T13:03:51.122Z,2.08
2023-03-11T13:06:45.292Z,1.88
2023-03-11T13:09:16.801Z,1.00
2023-03-11T13:11:46.321Z,1.48
2023-03-11T13:14:29.556Z,1.10
2023-03-11T13:17:17.608Z,1.80
2023-03-11T13:19:50.080Z,1.60
2023-03-11T13:22:43.607Z,0.90
2023-03-11T13:25:32.254Z,3.50
2023-03-11T13:28:28.138Z,1.70
2023-03-11T13:31:06.618Z,3.33
2023-03-11T13:33:55.651Z,3.15
2023-03-11T13:36:46.941Z,3.15
2023-03-11T13:39:38.043Z,2.70
2023-03-11T13:42:34.510Z,2.47
2023-03-11T13:45:01.637Z,1.80
2023-03-11T13:47:49.590Z,1.70
2023-03-11T13:50:25.307Z,1.05
2023-03-11T13:52:53.867Z,0.95
2023-03-11T13:55:23.824Z,1.00
2023-03-11T13:57:53.309Z,1.60
2023-03-11T14:00:25.556Z,1.40
2023-03-11T14:03:02.143Z,1.30
2023-03-11T14:05:36.748Z,1.02
2023-03-11T14:08:31.778Z,1.00
2023-03-11T14:11:17.014Z,0.73
2023-03-11T14:13:46.977Z,0.82
2023-03-11T14:16:36.382Z,0.70
2023-03-11T14:19:14.515Z,0.80
2023-03-11T14:21:46.183Z,0.60
2023-03-11T14:24:18.706Z,0.68
2023-03-11T14:26:48.660Z,0.70
2023-03-11T14:29:20.037Z,0.60
2023-03-11T14:31:47.776Z,1.08
2023-03-11T14:34:17.055Z,0.90
2023-03-11T14:36:57.383Z,9.10
2023-03-11T14:39:34.446Z,1.73
2023-03-11T14:42:26.769Z,2.50
2023-03-11T14:45:12.646Z,144.05
2023-03-11T14:48:13.263Z,177.40
2023-03-11T14:50:40.380Z,87.70
2023-03-11T14:53:31.213Z,21.60
2023-03-11T14:56:00.126Z,7.25
2023-03-11T14:59:01.633Z,4.15
2023-03-11T15:01:36.789Z,2.70
2023-03-11T15:04:12.641Z,1.80
2023-03-11T15:06:42.294Z,1.50
2023-03-11T15:09:28.965Z,1.08
2023-03-11T15:12:00.983Z,1.25
2023-03-11T15:14:31.911Z,1.38
2023-03-11T15:17:33.803Z,4.87
2023-03-11T15:20:07.555Z,4.03
2023-03-11T15:22:41.031Z,2.67
2023-03-11T15:25:18.386Z,2.55
2023-03-11T15:27:45.874Z,3.63
2023-03-11T15:30:28.898Z,1.77
2023-03-11T15:32:56.680Z,2.50
2023-03-11T15:35:28.723Z,2.78
2023-03-11T15:38:25.802Z,5.22
2023-03-11T15:40:55.082Z,4.60
2023-03-11T15:43:31.260Z,3.58
2023-03-11T15:46:00.355Z,2.58
2023-03-11T15:48:29.101Z,3.15
2023-03-11T15:50:57.939Z,2.70
2023-03-11T15:53:26.074Z,2.65
2023-03-11T15:55:55.165Z,4.57
2023-03-11T15:58:22.101Z,5.35
2023-03-11T16:00:53.567Z,9.32
2023-03-11T16:05:47.859Z,5.18
2023-03-11T16:08:16.141Z,3.10
2023-03-11T16:10:44.178Z,3.45
2023-03-11T16:13:13.274Z,4.03
2023-03-11T16:15:40.649Z,4.55
2023-03-11T16:18:08.957Z,3.88
2023-03-11T16:20:48.431Z,5.45
2023-03-11T16:23:23.396Z,3.95
2023-03-11T16:25:50.821Z,3.17
2023-03-11T16:28:17.688Z,3.45
2023-03-11T16:30:44.670Z,4.00
2023-03-11T16:33:11.652Z,3.30
2023-03-11T16:35:38.644Z,4.00
2023-03-11T16:38:09.224Z,3.92
2023-03-11T16:40:37.746Z,4.25
2023-03-11T16:43:14.270Z,3.70
2023-03-11T16:45:42.991Z,5.20
2023-03-11T16:48:12.878Z,3.95
2023-03-11T16:50:42.350Z,4.70
2023-03-11T16:53:10.588Z,4.32
2023-03-11T16:55:38.558Z,6.68
2023-03-11T16:58:07.236Z,7.07
2023-03-11T17:00:34.988Z,5.95
2023-03-11T17:03:04.955Z,6.97
2023-03-11T17:08:05.343Z,6.18
2023-03-11T17:10:38.700Z,7.20
2023-03-11T17:13:08.594Z,5.90
2023-03-11T17:15:39.166Z,7.25
2023-03-11T17:18:06.352Z,4.90
2023-03-11T17:20:35.099Z,7.55
2023-03-11T17:23:02.860Z,4.45
2023-03-11T17:25:31.186Z,4.22
2023-03-11T17:27:58.366Z,4.85
2023-03-11T17:30:36.330Z,5.43
2023-03-11T17:33:05.516Z,4.97
2023-03-11T17:35:33.120Z,4.88
2023-03-11T17:38:00.668Z,6.03
2023-03-11T17:40:30.718Z,5.80
2023-03-11T17:42:58.569Z,4.55
2023-03-11T17:45:26.272Z,5.53
2023-03-11T17:47:54.807Z,6.03
2023-03-11T17:50:24.608Z,4.95
2023-03-11T17:52:53.478Z,4.95
2023-03-11T17:55:21.635Z,5.25
2023-03-11T17:57:48.545Z,5.30
2023-03-11T18:00:16.530Z,6.35
2023-03-11T18:02:44.181Z,6.82
2023-03-11T18:05:11.017Z,6.30
2023-03-11T18:07:41.456Z,7.70
2023-03-11T18:10:14.017Z,7.15
2023-03-11T18:12:48.614Z,6.22
2023-03-11T18:15:19.793Z,7.18
2023-03-11T18:17:47.738Z,7.97
2023-03-11T18:20:15.447Z,7.28
2023-03-11T18:22:46.675Z,7.63
2023-03-11T18:25:15.566Z,8.40
2023-03-11T18:27:43.513Z,7.57
2023-03-11T18:30:12.225Z,7.57
2023-03-11T18:32:39.494Z,7.47
2023-03-11T18:35:07.198Z,7.38
2023-03-11T18:37:34.341Z,7.90
2023-03-11T18:40:01.580Z,6.93
2023-03-11T18:42:28.481Z,6.18
2023-03-11T18:44:55.432Z,7.80
2023-03-11T18:47:22.578Z,7.07
2023-03-11T18:49:50.015Z,7.40
2023-03-11T18:52:16.850Z,6.43
2023-03-11T18:54:44.547Z,7.70
2023-03-11T18:57:12.283Z,6.03
2023-03-11T18:59:39.533Z,6.80
2023-03-11T19:02:06.734Z,6.75
2023-03-11T19:04:33.804Z,5.15
2023-03-11T19:07:00.779Z,4.82
2023-03-11T19:09:27.567Z,4.28
2023-03-11T19:11:54.504Z,4.95
2023-03-11T19:14:21.572Z,4.18
2023-03-11T19:16:49.177Z,4.47
2023-03-11T19:19:17.908Z,5.63
2023-03-11T19:21:47.669Z,5.43
2023-03-11T19:24:16.312Z,4.68
2023-03-11T19:26:46.000Z,5.03
2023-03-11T19:29:17.739Z,6.47
2023-03-11T19:31:45.367Z,6.53
2023-03-11T19:34:12.304Z,7.32
2023-03-11T19:36:39.600Z,7.07
2023-03-11T19:39:08.030Z,7.25
2023-03-11T19:41:35.033Z,4.03
2023-03-11T19:44:04.306Z,4.50
2023-03-11T19:46:35.125Z,4.60
2023-03-11T19:49:03.236Z,6.25
2023-03-11T19:51:46.475Z,5.93
2023-03-11T19:54:16.566Z,5.88
2023-03-11T19:56:44.880Z,5.63
2023-03-11T19:59:11.977Z,5.60
2023-03-11T20:01:39.064Z,6.03
2023-03-11T20:04:06.453Z,5.82
2023-03-11T20:06:33.656Z,6.25
2023-03-11T20:09:00.812Z,5.07
2023-03-11T20:11:27.968Z,6.18
2023-03-11T20:13:55.179Z,6.35
2023-03-11T20:16:22.715Z,7.32
2023-03-11T20:18:50.885Z,5.93
2023-03-11T20:21:18.198Z,5.20
2023-03-11T20:23:45.042Z,5.85
2023-03-11T20:26:15.087Z,3.38
2023-03-11T20:28:42.437Z,4.20
2023-03-11T20:31:12.214Z,5.60
2023-03-11T20:33:39.170Z,5.35
2023-03-11T20:36:07.860Z,4.40
2023-03-11T20:38:35.345Z,4.95
2023-03-11T20:41:05.937Z,7.38
2023-03-11T20:43:33.969Z,6.57
2023-03-11T20:46:01.027Z,14.52
2023-03-11T20:48:28.221Z,8.25
2023-03-11T20:51:03.972Z,10.85
2023-03-11T20:53:31.726Z,8.75
2023-03-11T20:55:59.825Z,6.18
2023-03-11T20:58:26.754Z,6.10
2023-03-11T21:00:53.677Z,6.38
2023-03-11T21:03:20.592Z,5.60
2023-03-11T21:05:47.762Z,7.00
2023-03-11T21:08:14.829Z,7.07
2023-03-11T21:10:42.192Z,6.18
2023-03-11T21:13:09.286Z,4.63
2023-03-11T21:15:36.307Z,4.07
2023-03-11T21:18:03.601Z,4.65
2023-03-11T21:20:30.622Z,4.82
2023-03-11T21:22:57.604Z,5.20
2023-03-11T21:25:24.479Z,4.97
2023-03-11T21:27:51.427Z,5.88
2023-03-11T21:30:18.559Z,5.60
2023-03-11T21:32:45.714Z,5.40
2023-03-11T21:35:12.676Z,5.97
2023-03-11T21:37:39.712Z,5.82
2023-03-11T21:40:07.747Z,5.75
2023-03-11T21:42:34.654Z,4.50
2023-03-11T21:45:01.577Z,4.65
2023-03-11T21:47:28.548Z,4.70
2023-03-11T21:49:55.419Z,5.57
2023-03-11T21:52:22.640Z,4.72
2023-03-11T21:54:49.639Z,4.90
2023-03-11T21:57:16.666Z,5.50
2023-03-11T21:59:43.610Z,6.25
2023-03-11T22:02:14.009Z,6.97
2023-03-11T22:04:41.825Z,7.22
2023-03-11T22:07:09.696Z,6.85
2023-03-11T22:09:37.162Z,7.85
2023-03-11T22:12:04.424Z,7.32
2023-03-11T22:14:31.421Z,6.15
2023-03-11T22:16:58.401Z,6.47
2023-03-11T22:19:25.301Z,5.80
2023-03-11T22:21:52.296Z,7.25
2023-03-11T22:24:19.293Z,7.07
2023-03-11T22:26:46.308Z,7.32
2023-03-11T22:29:13.817Z,6.72
2023-03-11T22:31:40.930Z,6.55
2023-03-11T22:34:07.872Z,7.20
2023-03-11T22:36:34.746Z,6.45
2023-03-11T22:39:04.400Z,7.20
2023-03-11T22:41:31.895Z,6.75
2023-03-11T22:43:58.960Z,6.68
2023-03-11T22:46:26.277Z,6.90
2023-03-11T22:48:53.201Z,7.45
2023-03-11T22:51:20.020Z,7.18
2023-03-11T22:53:47.014Z,7.60
2023-03-11T22:56:15.667Z,7.00
2023-03-11T22:58:42.756Z,7.10
2023-03-11T23:01:09.962Z,7.20
2023-03-11T23:03:37.634Z,7.60
2023-03-11T23:06:07.467Z,5.78
2023-03-11T23:08:34.865Z,6.88
2023-03-11T23:11:04.035Z,7.07
2023-03-11T23:13:31.371Z,7.00
2023-03-11T23:16:04.679Z,6.55
2023-03-11T23:18:31.614Z,6.10
2023-03-11T23:20:58.449Z,4.93
2023-03-11T23:23:25.558Z,5.85
2023-03-11T23:25:52.385Z,4.85
2023-03-11T23:28:19.419Z,5.97
2023-03-11T23:30:46.441Z,4.00
2023-03-11T23:33:13.288Z,4.22
2023-03-11T23:35:42.098Z,4.90
2023-03-11T23:38:09.516Z,4.38
2023-03-11T23:40:36.568Z,5.25
2023-03-11T23:43:03.362Z,4.88
2023-03-11T23:45:30.259Z,4.82
2023-03-11T23:47:57.118Z,2.85
2023-03-11T23:50:24.086Z,3.65
2023-03-11T23:52:51.017Z,5.13
2023-03-11T23:55:17.885Z,5.50
2023-03-11T23:57:44.881Z,3.97
